Time;durP1;ratioP1;P1;durP2;ratioP2;P2;SDS_P1;SDS_P2;PMS_P1;PMS_P2;Temp;Humidity;BMP_temperature;BMP_pressure;BME280_temperature;BME280_humidity;BME280_pressure;Samples;Min_cycle;Max_cycle;Signal;HPM_P1;HPM_P2
2022/06/29 00:00:26;;;;;;;6.13;4.20;;;16.40;99.90;;;;;;5049498;28;20239;-64
2022/06/29 00:02:53;;;;;;;5.07;4.43;;;16.20;99.90;;;;;;5076465;28;20200;-64
2022/06/29 00:05:22;;;;;;;4.47;4.07;;;16.30;99.90;;;;;;5037749;28;20319;-64
2022/06/29 00:07:49;;;;;;;4.82;4.22;;;16.20;99.90;;;;;;5060494;28;20213;-64
2022/06/29 00:10:17;;;;;;;4.78;4.00;;;16.40;99.90;;;;;;5050046;28;20225;-63
2022/06/29 00:12:46;;;;;;;4.05;3.75;;;16.60;99.90;;;;;;5067914;28;20212;-63
2022/06/29 00:15:15;;;;;;;5.97;4.55;;;16.50;99.90;;;;;;5055994;28;20192;-64
2022/06/29 00:17:43;;;;;;;4.35;3.95;;;17.40;99.90;;;;;;5058234;28;20205;-63
2022/06/29 00:20:12;;;;;;;4.05;3.75;;;16.70;99.90;;;;;;5043644;28;20224;-63
2022/06/29 00:22:39;;;;;;;5.80;4.00;;;17.00;99.90;;;;;;5056488;28;20200;-63
2022/06/29 00:25:07;;;;;;;7.45;4.30;;;;;;;;;;5059512;28;20305;-64
2022/06/29 00:27:34;;;;;;;4.45;4.05;;;16.50;99.90;;;;;;5058007;28;20299;-63
2022/06/29 00:30:01;;;;;;;4.07;3.78;;;16.60;99.90;;;;;;5067039;28;20196;-63
2022/06/29 00:32:30;;;;;;;5.72;4.25;;;17.40;99.90;;;;;;5042485;28;20204;-63
2022/06/29 00:34:57;;;;;;;6.10;4.03;;;16.40;99.90;;;;;;5051485;28;20228;-63
2022/06/29 00:37:24;;;;;;;9.27;4.40;;;16.60;99.90;;;;;;5057867;28;20204;-64
2022/06/29 00:39:51;;;;;;;6.32;4.00;;;16.40;99.90;;;;;;5051665;28;20208;-64
2022/06/29 00:42:18;;;;;;;4.57;4.10;;;17.00;99.90;;;;;;5064642;28;20193;-63
2022/06/29 00:44:45;;;;;;;4.75;4.30;;;16.30;99.90;;;;;;5058037;28;20235;-64
2022/06/29 00:47:11;;;;;;;4.20;3.80;;;16.30;99.90;;;;;;5046794;28;20205;-64
2022/06/29 00:49:39;;;;;;;5.13;4.15;;;16.40;99.90;;;;;;5058437;28;20227;-64
2022/06/29 00:52:08;;;;;;;6.30;4.45;;;16.20;99.90;;;;;;5034405;28;20215;-63
2022/06/29 00:54:38;;;;;;;4.32;3.92;;;15.90;99.90;;;;;;5056635;28;20994;-63
2022/06/29 00:57:09;;;;;;;4.70;4.30;;;16.40;99.90;;;;;;5072871;28;20818;-63
2022/06/29 00:59:44;;;;;;;5.65;4.10;;;16.10;99.90;;;;;;5073295;28;20606;-63
2022/06/29 01:02:11;;;;;;;4.68;3.88;;;16.10;99.90;;;;;;5053861;28;20209;-63
2022/06/29 01:04:40;;;;;;;4.13;3.72;;;16.20;99.90;;;;;;5069878;28;20223;-63
2022/06/29 01:07:07;;;;;;;5.00;3.78;;;;;;;;;;5038843;28;21053;-63
2022/06/29 01:09:34;;;;;;;4.90;4.22;;;16.00;99.90;;;;;;5073034;28;20199;-63
2022/06/29 01:12:01;;;;;;;5.30;4.30;;;16.00;99.90;;;;;;5054033;28;20203;-63
2022/06/29 01:14:28;;;;;;;7.45;4.10;;;16.10;99.90;;;;;;5067843;28;20192;-63
2022/06/29 01:16:55;;;;;;;6.82;4.10;;;;;;;;;;5068504;28;20207;-63
2022/06/29 01:19:23;;;;;;;5.68;4.10;;;16.10;99.90;;;;;;5050195;28;20195;-63
2022/06/29 01:21:52;;;;;;;4.53;4.13;;;16.20;99.90;;;;;;5051723;28;20633;-63
2022/06/29 01:24:22;;;;;;;5.15;4.32;;;16.00;99.90;;;;;;5043430;28;20224;-63
2022/06/29 01:26:50;;;;;;;3.80;3.50;;;16.10;99.90;;;;;;5053007;28;20200;-63
2022/06/29 01:29:17;;;;;;;4.90;4.28;;;15.90;99.90;;;;;;5053491;28;20934;-63
2022/06/29 01:31:44;;;;;;;4.88;4.05;;;16.10;99.90;;;;;;5074736;28;20204;-64
2022/06/29 01:34:10;;;;;;;5.03;3.67;;;16.00;99.90;;;;;;5053642;28;20661;-64
2022/06/29 01:36:37;;;;;;;6.93;4.22;;;16.00;99.90;;;;;;5049166;28;20217;-63
2022/06/29 01:39:04;;;;;;;5.28;3.65;;;16.00;99.90;;;;;;5056305;28;20204;-63
2022/06/29 01:41:32;;;;;;;3.92;3.63;;;16.10;99.90;;;;;;5063181;28;20661;-63
2022/06/29 01:43:59;;;;;;;5.15;4.15;;;16.10;99.90;;;;;;5050606;28;20203;-63
2022/06/29 01:46:26;;;;;;;4.18;3.72;;;16.10;99.90;;;;;;5064221;28;21067;-64
2022/06/29 01:48:53;;;;;;;4.63;4.15;;;16.00;99.90;;;;;;5053374;28;20192;-64
2022/06/29 01:51:20;;;;;;;4.95;3.97;;;17.10;99.90;;;;;;5071994;28;20216;-63
2022/06/29 01:53:46;;;;;;;5.00;3.90;;;16.10;99.90;;;;;;5043028;28;20224;-63
2022/06/29 01:56:13;;;;;;;4.07;3.65;;;16.10;99.90;;;;;;5051624;28;20204;-64
2022/06/29 01:58:41;;;;;;;6.25;4.18;;;16.10;99.90;;;;;;5057499;28;20235;-63
2022/06/29 02:01:12;;;;;;;4.20;3.80;;;16.20;99.90;;;;;;5065330;28;20196;-63
2022/06/29 02:03:39;;;;;;;4.40;3.65;;;;;;;;;;5061748;28;20192;-63
2022/06/29 02:06:06;;;;;;;4.22;3.83;;;16.20;99.90;;;;;;5054098;28;20231;-63
2022/06/29 02:08:33;;;;;;;4.63;3.90;;;16.20;99.90;;;;;;5038164;28;20200;-64
2022/06/29 02:11:01;;;;;;;4.30;3.90;;;15.90;99.90;;;;;;5067118;28;20445;-64
2022/06/29 02:13:29;;;;;;;4.65;4.22;;;16.10;99.90;;;;;;5048186;28;20665;-64
2022/06/29 02:15:57;;;;;;;6.22;3.95;;;16.00;99.90;;;;;;5069438;28;20200;-63
2022/06/29 02:18:24;;;;;;;6.95;3.83;;;16.10;99.90;;;;;;5055379;28;20192;-63
2022/06/29 02:20:51;;;;;;;5.43;3.80;;;16.10;99.90;;;;;;5044143;28;20692;-64
2022/06/29 02:23:17;;;;;;;6.05;4.18;;;16.30;99.90;;;;;;5050782;28;20242;-63
2022/06/29 02:25:44;;;;;;;6.10;4.45;;;16.00;99.90;;;;;;5059529;28;20224;-63
2022/06/29 02:28:11;;;;;;;4.50;4.10;;;16.10;99.90;;;;;;5050647;28;20196;-63
2022/06/29 02:36:08;;;;;;;4.97;3.80;;;16.00;99.90;;;;;;5054732;28;20341;-63
2022/06/29 02:38:35;;;;;;;4.53;4.13;;;15.90;99.90;;;;;;5046339;28;20224;-63
2022/06/29 02:41:02;;;;;;;5.97;3.83;;;15.90;99.90;;;;;;5059766;28;20226;-64
2022/06/29 02:43:29;;;;;;;4.00;3.58;;;15.90;99.90;;;;;;5045245;28;20197;-64
2022/06/29 02:45:56;;;;;;;4.63;3.80;;;16.50;99.90;;;;;;5064055;28;20224;-64
2022/06/29 02:48:24;;;;;;;5.32;3.45;;;16.00;99.90;;;;;;5064157;28;20212;-63
2022/06/29 02:50:51;;;;;;;4.22;3.80;;;15.90;99.90;;;;;;5052679;28;23251;-63
2022/06/29 02:53:18;;;;;;;4.00;3.60;;;;;;;;;;5064569;28;20195;-63
2022/06/29 02:55:45;;;;;;;6.80;3.90;;;16.10;99.90;;;;;;5029248;28;20554;-63
2022/06/29 02:58:12;;;;;;;3.78;3.35;;;15.90;99.90;;;;;;5067240;28;20211;-63
2022/06/29 03:00:39;;;;;;;4.95;3.47;;;15.70;99.90;;;;;;5054867;28;20196;-64
2022/06/29 03:03:06;;;;;;;3.80;3.50;;;16.00;99.90;;;;;;5056158;28;20200;-63
2022/06/29 03:05:34;;;;;;;4.20;3.55;;;15.90;99.90;;;;;;5049944;28;20254;-63
2022/06/29 03:08:01;;;;;;;4.70;3.75;;;15.70;99.90;;;;;;5046126;28;20204;-63
2022/06/29 03:10:28;;;;;;;4.07;3.67;;;18.00;99.90;;;;;;5045552;28;20219;-63
2022/06/29 03:12:54;;;;;;;5.05;4.03;;;15.90;99.90;;;;;;5063403;28;20216;-63
2022/06/29 03:15:22;;;;;;;4.07;3.67;;;15.80;99.90;;;;;;5055986;28;20195;-64
2022/06/29 03:17:48;;;;;;;4.47;4.07;;;15.80;99.90;;;;;;5049357;28;21913;-64
2022/06/29 03:20:15;;;;;;;5.43;3.80;;;15.10;99.90;;;;;;5058512;28;20696;-64
2022/06/29 03:22:46;;;;;;;3.75;3.45;;;15.80;99.90;;;;;;5060391;28;20247;-63
2022/06/29 03:25:13;;;;;;;4.07;3.63;;;15.50;99.90;;;;;;5057306;28;20443;-63
2022/06/29 03:27:39;;;;;;;3.65;3.35;;;15.80;99.90;;;;;;5057990;28;20684;-63
2022/06/29 03:30:07;;;;;;;3.88;3.58;;;15.90;99.90;;;;;;5064073;28;20196;-64
2022/06/29 03:32:34;;;;;;;5.45;3.65;;;15.80;99.90;;;;;;5055970;28;20200;-63
2022/06/29 03:35:01;;;;;;;3.55;3.13;;;;;;;;;;5056445;28;20200;-63
2022/06/29 03:37:28;;;;;;;6.25;3.80;;;16.00;99.90;;;;;;5061419;28;20215;-63
2022/06/29 03:39:57;;;;;;;3.85;3.55;;;;;;;;;;5038847;28;20772;-64
2022/06/29 03:42:24;;;;;;;4.43;3.80;;;15.80;99.90;;;;;;5059653;28;20207;-63
2022/06/29 03:44:51;;;;;;;4.82;3.33;;;15.80;99.90;;;;;;5073876;28;20196;-63
2022/06/29 03:47:17;;;;;;;3.63;3.25;;;15.80;99.90;;;;;;5057490;28;21064;-64
2022/06/29 03:49:44;;;;;;;4.80;3.75;;;15.90;99.90;;;;;;5068116;28;20695;-63
2022/06/29 03:52:11;;;;;;;3.88;3.47;;;15.90;99.90;;;;;;5046929;28;20212;-63
2022/06/29 03:54:38;;;;;;;5.88;3.78;;;15.90;99.90;;;;;;5056269;28;20200;-63
2022/06/29 03:57:06;;;;;;;4.00;3.50;;;15.30;99.90;;;;;;5043237;28;20246;-63
2022/06/29 03:59:33;;;;;;;4.65;3.42;;;15.80;99.90;;;;;;5067058;28;20191;-63
2022/06/29 04:02:00;;;;;;;4.80;4.05;;;16.80;99.90;;;;;;5067830;28;20709;-63
2022/06/29 04:04:26;;;;;;;4.68;3.40;;;15.90;99.90;;;;;;5044287;28;20720;-64
2022/06/29 04:06:53;;;;;;;3.63;3.10;;;16.00;99.90;;;;;;5061914;28;20587;-63
2022/06/29 04:09:20;;;;;;;3.92;3.38;;;15.80;99.90;;;;;;5057337;28;20211;-64
2022/06/29 04:11:52;;;;;;;3.30;3.00;;;18.70;99.90;;;;;;5035626;28;20224;-64
2022/06/29 04:14:21;;;;;;;3.35;3.05;;;15.90;99.90;;;;;;5059751;28;20414;-63
2022/06/29 04:16:48;;;;;;;5.93;3.42;;;15.90;99.90;;;;;;5054312;28;20891;-64
2022/06/29 04:19:15;;;;;;;5.13;3.22;;;15.90;99.90;;;;;;5058059;28;21567;-63
2022/06/29 04:21:42;;;;;;;6.35;3.50;;;15.80;99.90;;;;;;5071721;28;20196;-64
2022/06/29 04:24:09;;;;;;;4.30;3.20;;;15.80;99.90;;;;;;5040704;28;20240;-64
2022/06/29 04:26:36;;;;;;;4.10;3.40;;;16.00;99.90;;;;;;5030096;28;20250;-63
2022/06/29 04:29:03;;;;;;;3.30;2.97;;;15.60;99.90;;;;;;5036259;28;20223;-64
2022/06/29 04:31:31;;;;;;;3.58;3.10;;;16.10;99.90;;;;;;5053537;28;20224;-63
2022/06/29 04:33:58;;;;;;;3.47;3.17;;;15.00;99.90;;;;;;5056954;28;20204;-63
2022/06/29 04:36:25;;;;;;;5.20;3.00;;;15.40;99.90;;;;;;5051197;28;20196;-63
2022/06/29 04:38:53;;;;;;;4.95;3.05;;;16.10;99.90;;;;;;5055280;28;20226;-63
2022/06/29 04:41:20;;;;;;;4.95;3.30;;;16.00;99.90;;;;;;5040995;28;24355;-63
2022/06/29 04:43:47;;;;;;;3.08;2.72;;;16.30;99.90;;;;;;5055918;28;20224;-63
2022/06/29 04:46:23;;;;;;;4.07;3.10;;;16.20;99.90;;;;;;5041126;28;20232;-63
2022/06/29 04:48:53;;;;;;;4.28;3.00;;;16.50;99.90;;;;;;5056406;28;20231;-63
2022/06/29 04:51:20;;;;;;;4.80;2.97;;;16.50;99.90;;;;;;5066014;28;20220;-63
2022/06/29 04:53:48;;;;;;;3.25;3.00;;;;;;;;;;5044302;28;20224;-64
2022/06/29 04:56:16;;;;;;;3.85;3.28;;;16.30;99.90;;;;;;5037250;28;21144;-63
2022/06/29 04:58:43;;;;;;;3.53;2.65;;;;;;;;;;5055545;28;22957;-63
2022/06/29 05:01:10;;;;;;;4.47;2.70;;;16.40;99.90;;;;;;5053142;28;20312;-62
2022/06/29 05:03:37;;;;;;;5.20;3.28;;;16.40;99.90;;;;;;5046345;28;20219;-65
2022/06/29 05:06:06;;;;;;;2.90;2.67;;;16.60;99.90;;;;;;5040426;28;20724;-63
2022/06/29 05:08:33;;;;;;;5.22;2.95;;;19.80;99.90;;;;;;5032874;28;20204;-63
2022/06/29 05:10:59;;;;;;;3.33;3.00;;;16.10;99.90;;;;;;5050201;28;20205;-63
2022/06/29 05:13:29;;;;;;;7.28;3.35;;;16.40;99.90;;;;;;5044076;28;20230;-64
2022/06/29 05:15:56;;;;;;;4.38;3.08;;;16.40;99.90;;;;;;5022874;28;20230;-63
2022/06/29 05:18:24;;;;;;;4.28;3.13;;;16.40;99.90;;;;;;5059609;28;20231;-64
2022/06/29 05:20:51;;;;;;;5.75;3.08;;;17.00;99.90;;;;;;5029298;28;23333;-64
2022/06/29 05:23:19;;;;;;;4.70;2.92;;;16.50;99.90;;;;;;5047890;28;20235;-62
2022/06/29 05:25:46;;;;;;;4.13;3.10;;;;;;;;;;5050089;28;20227;-63
2022/06/29 05:28:14;;;;;;;3.45;3.03;;;15.90;99.90;;;;;;5045749;28;20219;-62
2022/06/29 05:30:41;;;;;;;4.13;3.03;;;14.60;99.90;;;;;;5056410;28;20208;-63
2022/06/29 05:33:08;;;;;;;3.83;2.80;;;16.50;99.90;;;;;;5057578;28;20545;-63
2022/06/29 05:35:35;;;;;;;4.57;2.97;;;;;;;;;;5059747;28;20200;-62
2022/06/29 05:38:02;;;;;;;4.18;3.00;;;;;;;;;;5050924;28;20208;-62
2022/06/29 05:40:31;;;;;;;6.13;3.13;;;16.90;99.90;;;;;;5066286;28;20192;-62
2022/06/29 05:42:58;;;;;;;6.93;3.00;;;17.00;99.90;;;;;;5052235;28;20227;-63
2022/06/29 05:45:25;;;;;;;3.47;3.17;;;16.70;99.90;;;;;;5057383;28;20200;-63
2022/06/29 05:47:52;;;;;;;5.45;2.97;;;16.70;99.90;;;;;;5059722;28;20726;-63
2022/06/29 05:50:19;;;;;;;2.80;2.60;;;16.70;99.90;;;;;;5061018;28;20890;-63
2022/06/29 05:52:46;;;;;;;4.63;2.72;;;16.70;99.90;;;;;;5058691;28;20277;-64
2022/06/29 05:55:13;;;;;;;3.13;2.83;;;16.80;99.90;;;;;;5070841;28;20288;-63
2022/06/29 05:57:41;;;;;;;3.05;2.85;;;16.80;99.90;;;;;;5046952;28;20232;-63
2022/06/29 06:00:10;;;;;;;3.30;2.85;;;16.80;99.90;;;;;;5063788;28;20192;-64
2022/06/29 06:02:37;;;;;;;3.67;2.80;;;16.90;99.90;;;;;;5048031;28;20209;-63
2022/06/29 06:05:04;;;;;;;2.70;2.50;;;16.90;99.90;;;;;;5070934;28;20243;-64
2022/06/29 06:07:31;;;;;;;4.50;3.13;;;17.00;99.90;;;;;;5047248;28;21072;-64
2022/06/29 06:09:58;;;;;;;2.85;2.65;;;17.00;99.90;;;;;;5056347;28;20692;-64
2022/06/29 06:12:24;;;;;;;3.58;2.97;;;16.80;99.90;;;;;;5044566;28;20301;-64
2022/06/29 06:14:53;;;;;;;4.90;2.72;;;17.40;99.90;;;;;;5060463;28;20200;-64
2022/06/29 06:17:19;;;;;;;6.50;2.60;;;17.20;99.90;;;;;;5054122;28;20563;-64
2022/06/29 06:19:46;;;;;;;3.13;2.90;;;17.20;99.90;;;;;;5057779;28;20196;-64
2022/06/29 06:22:13;;;;;;;6.50;3.10;;;17.30;99.90;;;;;;5055186;28;20843;-64
2022/06/29 06:24:40;;;;;;;3.70;2.78;;;17.30;99.90;;;;;;5059612;28;21065;-64
2022/06/29 06:27:08;;;;;;;3.03;2.70;;;17.30;99.90;;;;;;5068010;28;20228;-63
2022/06/29 06:29:35;;;;;;;3.80;3.15;;;18.10;99.90;;;;;;5039957;28;20204;-64
2022/06/29 06:32:04;;;;;;;3.33;2.78;;;17.30;99.90;;;;;;5069328;28;20197;-63
2022/06/29 06:34:31;;;;;;;3.13;2.80;;;17.40;99.90;;;;;;5044441;28;20200;-64
2022/06/29 06:36:59;;;;;;;2.67;2.47;;;17.40;99.90;;;;;;5056741;28;20206;-64
2022/06/29 06:39:26;;;;;;;2.90;2.70;;;17.30;99.90;;;;;;5058916;28;20200;-64
2022/06/29 06:41:52;;;;;;;3.92;3.10;;;17.50;99.90;;;;;;5067479;28;20188;-64
2022/06/29 06:44:18;;;;;;;3.10;2.80;;;17.50;99.90;;;;;;5049505;28;20207;-64
2022/06/29 06:46:48;;;;;;;2.97;2.58;;;17.50;99.90;;;;;;5066762;28;20224;-64
2022/06/29 06:49:17;;;;;;;3.28;2.92;;;17.60;99.90;;;;;;5042109;28;20200;-64
2022/06/29 06:51:43;;;;;;;3.15;2.78;;;17.60;99.90;;;;;;5038489;28;20346;-64
2022/06/29 06:54:10;;;;;;;4.03;2.95;;;17.60;99.90;;;;;;5056230;28;20214;-64
2022/06/29 06:56:37;;;;;;;4.00;2.97;;;17.70;99.90;;;;;;5058898;28;20205;-64
2022/06/29 06:59:04;;;;;;;4.55;2.83;;;19.30;99.90;;;;;;5048778;28;20215;-64
2022/06/29 07:01:30;;;;;;;3.50;2.97;;;17.50;99.90;;;;;;5063992;28;20970;-64
2022/06/29 07:03:57;;;;;;;3.40;3.10;;;17.70;99.90;;;;;;5051433;28;20595;-64
2022/06/29 07:06:25;;;;;;;5.68;3.17;;;17.80;99.90;;;;;;5042776;28;20231;-64
2022/06/29 07:08:54;;;;;;;3.50;2.90;;;17.80;99.90;;;;;;5061822;28;20200;-64
2022/06/29 07:11:21;;;;;;;5.10;3.10;;;19.20;99.90;;;;;;5053915;28;20748;-64
2022/06/29 07:13:48;;;;;;;3.35;3.05;;;18.20;99.90;;;;;;5060700;28;20200;-64
2022/06/29 07:16:15;;;;;;;3.47;3.17;;;17.90;99.90;;;;;;5048370;28;20614;-64
2022/06/29 07:18:42;;;;;;;3.92;3.47;;;17.80;99.90;;;;;;5051527;28;22473;-63
2022/06/29 07:21:09;;;;;;;4.40;3.55;;;17.90;99.90;;;;;;5051397;28;20223;-64
2022/06/29 07:23:37;;;;;;;4.90;3.33;;;18.10;99.90;;;;;;5047210;28;20329;-64
2022/06/29 07:26:04;;;;;;;4.20;3.35;;;18.10;99.90;;;;;;5045696;28;20764;-64
2022/06/29 07:28:31;;;;;;;8.90;3.05;;;18.20;99.90;;;;;;5071231;28;20547;-64
2022/06/29 07:30:58;;;;;;;3.58;3.28;;;18.20;99.90;;;;;;5040855;28;20212;-64
2022/06/29 07:33:24;;;;;;;4.57;3.20;;;18.00;99.90;;;;;;5059364;28;20201;-64
2022/06/29 07:35:51;;;;;;;5.93;3.22;;;18.30;99.90;;;;;;5058070;28;20205;-63
2022/06/29 07:38:19;;;;;;;3.25;2.95;;;18.30;99.90;;;;;;5057079;28;20210;-64
2022/06/29 07:40:47;;;;;;;3.55;3.25;;;;;;;;;;5061872;28;20212;-64
2022/06/29 07:43:14;;;;;;;3.55;3.20;;;18.50;99.90;;;;;;5060880;28;20201;-64
2022/06/29 07:45:41;;;;;;;3.78;3.20;;;18.60;99.90;;;;;;5039419;28;20216;-63
2022/06/29 07:48:10;;;;;;;7.55;3.38;;;18.50;99.90;;;;;;5056268;28;20236;-64
2022/06/29 07:50:36;;;;;;;3.95;3.10;;;18.80;99.90;;;;;;5063922;28;20219;-64
2022/06/29 07:53:03;;;;;;;3.42;3.08;;;19.90;99.90;;;;;;5048531;28;20215;-64
2022/06/29 07:55:30;;;;;;;3.20;2.97;;;18.60;99.90;;;;;;5076565;28;20564;-64
2022/06/29 07:57:58;;;;;;;3.22;2.90;;;18.90;99.90;;;;;;5060917;28;20197;-64
2022/06/29 08:00:26;;;;;;;4.68;3.20;;;20.20;99.90;;;;;;5064775;28;20215;-64
2022/06/29 08:02:53;;;;;;;3.53;3.22;;;19.30;99.90;;;;;;5053814;28;20203;-62
2022/06/29 08:05:20;;;;;;;4.07;3.08;;;19.20;99.90;;;;;;5061401;28;20200;-62
2022/06/29 08:07:47;;;;;;;4.75;2.90;;;19.40;99.90;;;;;;5062083;28;20223;-62
2022/06/29 08:10:14;;;;;;;4.95;2.90;;;19.40;99.90;;;;;;5063369;28;20192;-64
2022/06/29 08:12:41;;;;;;;3.55;2.85;;;19.50;99.90;;;;;;5060698;28;20204;-65
2022/06/29 08:15:10;;;;;;;4.78;3.13;;;19.50;99.90;;;;;;5066927;28;20666;-64
2022/06/29 08:17:37;;;;;;;9.23;2.83;;;19.50;99.90;;;;;;5036830;28;20208;-63
2022/06/29 08:20:04;;;;;;;6.45;2.88;;;19.50;99.90;;;;;;5060874;28;20196;-63
2022/06/29 08:22:31;;;;;;;5.60;3.10;;;19.50;99.90;;;;;;5068043;28;20210;-64
2022/06/29 08:24:58;;;;;;;3.60;2.90;;;19.50;99.90;;;;;;5059109;28;20736;-64
2022/06/29 08:27:24;;;;;;;4.07;2.70;;;19.60;99.90;;;;;;5071617;28;20223;-63
2022/06/29 08:29:51;;;;;;;6.05;2.95;;;20.20;99.90;;;;;;5067803;28;20204;-64
2022/06/29 08:32:20;;;;;;;4.68;2.70;;;19.60;99.90;;;;;;5058189;28;20705;-64
2022/06/29 08:34:47;;;;;;;3.03;2.70;;;19.80;99.90;;;;;;5063956;28;21062;-64
2022/06/29 08:37:14;;;;;;;2.97;2.72;;;19.90;99.90;;;;;;5057390;28;20204;-64
2022/06/29 08:39:40;;;;;;;5.00;2.70;;;19.70;99.90;;;;;;5058720;28;20223;-64
2022/06/29 08:42:08;;;;;;;3.10;2.78;;;20.20;99.90;;;;;;5060651;28;20207;-64
2022/06/29 08:44:37;;;;;;;7.20;3.15;;;20.20;99.90;;;;;;5055366;28;21053;-64
2022/06/29 08:47:05;;;;;;;2.83;2.63;;;20.30;99.90;;;;;;5051341;28;20607;-65
2022/06/29 08:49:34;;;;;;;4.40;2.80;;;20.40;99.90;;;;;;5069198;28;20196;-64
2022/06/29 08:52:05;;;;;;;5.30;2.92;;;20.20;99.90;;;;;;5055531;28;20227;-64
2022/06/29 08:54:32;;;;;;;8.80;3.10;;;20.50;99.90;;;;;;5046291;28;20220;-63
2022/06/29 08:57:00;;;;;;;3.33;3.03;;;20.60;99.90;;;;;;5055713;28;20230;-64
2022/06/29 08:59:28;;;;;;;5.57;2.92;;;20.70;99.90;;;;;;5048079;28;20196;-64
2022/06/29 09:01:54;;;;;;;5.28;2.80;;;21.10;99.90;;;;;;5067640;28;20200;-63
2022/06/29 09:04:22;;;;;;;2.72;2.53;;;21.00;99.90;;;;;;5040070;28;21255;-65
2022/06/29 09:06:54;;;;;;;3.13;2.83;;;21.00;99.90;;;;;;5053203;28;20224;-64
2022/06/29 09:09:21;;;;;;;3.97;2.90;;;21.00;99.90;;;;;;5057346;28;20224;-63
2022/06/29 09:11:51;;;;;;;3.10;2.85;;;21.00;99.90;;;;;;5045861;28;20941;-63
2022/06/29 09:14:20;;;;;;;3.70;3.40;;;21.30;99.90;;;;;;5036683;28;20224;-64
2022/06/29 09:17:08;;;;;;;3.70;3.40;;;21.30;99.90;;;;;;5042243;28;20396;-62
2022/06/29 09:19:45;;;;;;;3.53;3.22;;;21.40;99.90;;;;;;5038670;28;21285;-63
2022/06/29 09:22:14;;;;;;;3.80;3.45;;;21.30;99.90;;;;;;5036802;28;20312;-63
2022/06/29 09:24:41;;;;;;;3.80;3.50;;;21.40;99.90;;;;;;5063711;28;20227;-64
2022/06/29 09:27:11;;;;;;;5.50;3.58;;;21.40;99.90;;;;;;5038059;28;20227;-64
2022/06/29 09:29:41;;;;;;;9.05;3.67;;;21.40;99.90;;;;;;5051799;28;20227;-63
2022/06/29 09:32:13;;;;;;;5.00;3.67;;;21.80;99.90;;;;;;5043503;28;20208;-63
2022/06/29 09:34:42;;;;;;;4.32;3.92;;;21.70;99.90;;;;;;5049024;28;20729;-64
2022/06/29 09:37:12;;;;;;;6.22;3.85;;;21.70;99.90;;;;;;5055180;28;20291;-64
2022/06/29 09:39:44;;;;;;;4.55;4.15;;;21.90;99.90;;;;;;5035814;28;20250;-65
2022/06/29 09:42:12;;;;;;;5.80;3.78;;;21.90;99.90;;;;;;5053807;28;20208;-64
2022/06/29 09:44:40;;;;;;;5.90;4.18;;;;;;;;;;5050425;28;20212;-63
2022/06/29 09:47:11;;;;;;;4.95;3.80;;;21.90;99.90;;;;;;5043533;28;20224;-64
2022/06/29 09:49:39;;;;;;;4.65;3.85;;;21.50;99.90;;;;;;5043076;28;20211;-64
2022/06/29 09:52:07;;;;;;;5.10;4.38;;;22.00;99.90;;;;;;5048855;28;20204;-64
2022/06/29 09:54:38;;;;;;;8.40;4.30;;;22.40;99.90;;;;;;5049307;28;20219;-63
2022/06/29 09:57:07;;;;;;;6.68;4.00;;;22.40;99.90;;;;;;5064155;28;20200;-64
2022/06/29 10:02:37;;;;;;;5.47;3.95;;;22.40;99.90;;;;;;5054680;28;22028;-63
2022/06/29 10:05:09;;;;;;;5.75;4.22;;;22.40;99.90;;;;;;5031904;28;20243;-64
2022/06/29 10:07:39;;;;;;;6.20;4.10;;;22.50;99.90;;;;;;5055385;28;20220;-64
2022/06/29 10:10:09;;;;;;;5.55;4.45;;;22.90;99.90;;;;;;5046782;28;20716;-63
2022/06/29 10:15:42;;;;;;;5.22;4.22;;;22.90;99.90;;;;;;5040599;28;20227;-62
2022/06/29 10:18:19;;;;;;;4.80;4.38;;;21.10;99.90;;;;;;5036307;28;20933;-64
2022/06/29 10:20:48;;;;;;;4.80;4.00;;;23.10;99.90;;;;;;5027002;28;20214;-64
2022/06/29 10:23:43;;;;;;;5.57;3.88;;;23.10;99.90;;;;;;5041640;28;20235;-64
2022/06/29 10:26:39;;;;;;;4.70;4.20;;;23.20;99.90;;;;;;5036291;28;20219;-64
2022/06/29 10:29:32;;;;;;;4.05;3.50;;;23.20;99.90;;;;;;5052098;28;20226;-64
2022/06/29 10:32:06;;;;;;;6.47;4.07;;;23.20;99.90;;;;;;5041258;28;20960;-64
2022/06/29 10:37:26;;;;;;;4.65;3.80;;;23.30;99.90;;;;;;5064222;28;20334;-64
2022/06/29 10:39:58;;;;;;;5.30;4.50;;;23.30;99.90;;;;;;5040163;28;20223;-64
2022/06/29 10:45:33;;;;;;;4.03;3.72;;;23.40;99.90;;;;;;5048532;28;20235;-64
2022/06/29 10:48:21;;;;;;;4.13;3.72;;;23.60;99.90;;;;;;5047459;28;20310;-64
2022/06/29 10:50:51;;;;;;;4.65;4.25;;;24.70;99.90;;;;;;5034480;28;20192;-64
2022/06/29 10:53:22;;;;;;;4.32;3.92;;;23.50;99.90;;;;;;5060870;28;20219;-64
2022/06/29 10:55:59;;;;;;;7.53;4.22;;;23.40;99.90;;;;;;5038082;28;20273;-64
2022/06/29 10:58:26;;;;;;;9.98;3.67;;;24.80;99.90;;;;;;5059987;28;20696;-62
2022/06/29 11:00:55;;;;;;;13.82;3.80;;;24.10;99.90;;;;;;5049364;28;20545;-62
2022/06/29 11:03:23;;;;;;;3.85;3.55;;;;;;;;;;5037311;28;20220;-64
2022/06/29 11:15:39;;;;;;;4.30;3.40;;;23.60;99.90;;;;;;5055419;28;20349;-64
2022/06/29 11:16:57;;;;;;;5.90;3.28;;;23.70;99.90;;;;;;5052668;28;20710;-64
2022/06/29 11:19:30;;;;;;;3.28;3.03;;;23.60;99.90;;;;;;5047878;28;20216;-64
2022/06/29 11:22:18;;;;;;;3.78;3.47;;;23.60;99.90;;;;;;5040889;28;20265;-64
2022/06/29 11:24:58;;;;;;;3.47;3.17;;;23.60;99.90;;;;;;5054002;28;20235;-64
2022/06/29 11:27:37;;;;;;;5.15;3.38;;;23.40;99.90;;;;;;5040079;28;20220;-64
2022/06/29 11:30:06;;;;;;;4.15;3.20;;;23.20;99.90;;;;;;5064236;28;20329;-64
2022/06/29 11:32:38;;;;;;;3.40;3.10;;;23.40;99.90;;;;;;5058946;28;20208;-64
2022/06/29 11:35:07;;;;;;;4.82;3.42;;;23.40;99.90;;;;;;5063866;28;20197;-64
2022/06/29 11:37:34;;;;;;;5.65;3.38;;;23.90;99.90;;;;;;5041110;28;20220;-64
2022/06/29 11:40:01;;;;;;;3.58;3.28;;;23.80;99.90;;;;;;5060040;28;20580;-64
2022/06/29 11:45:16;;;;;;;3.40;3.10;;;24.00;99.90;;;;;;5066908;28;20681;-63
2022/06/29 11:47:52;;;;;;;3.10;2.63;;;24.00;99.90;;;;;;5039375;28;20235;-63
2022/06/29 11:50:19;;;;;;;5.50;3.10;;;24.00;99.90;;;;;;5071122;28;20568;-63
2022/06/29 11:52:47;;;;;;;4.40;3.10;;;24.00;99.90;;;;;;5052489;28;20219;-63
2022/06/29 11:55:14;;;;;;;3.10;2.90;;;23.90;99.90;;;;;;5052831;28;21528;-62
2022/06/29 11:57:41;;;;;;;5.65;2.95;;;24.00;99.90;;;;;;5036478;28;20228;-63
2022/06/29 12:00:11;;;;;;;5.45;2.75;;;24.20;99.90;;;;;;5044256;28;20281;-63
2022/06/29 12:02:38;;;;;;;4.25;2.75;;;24.40;99.90;;;;;;5029271;28;20669;-62
2022/06/29 12:05:07;;;;;;;2.75;2.53;;;24.50;99.90;;;;;;5054707;28;20685;-63
2022/06/29 12:07:35;;;;;;;3.15;2.95;;;24.30;99.90;;;;;;5032309;28;20220;-63
2022/06/29 12:10:02;;;;;;;2.92;2.70;;;24.40;99.90;;;;;;5041075;28;20302;-63
2022/06/29 12:12:29;;;;;;;4.22;3.42;;;24.30;99.90;;;;;;5040445;28;20730;-63
2022/06/29 12:14:56;;;;;;;3.10;2.80;;;24.40;99.90;;;;;;5056235;28;20213;-63
2022/06/29 12:17:23;;;;;;;3.17;2.60;;;24.30;99.90;;;;;;5050486;28;20223;-64
2022/06/29 12:19:50;;;;;;;2.92;2.67;;;24.20;99.90;;;;;;5052468;28;21041;-63
2022/06/29 12:22:19;;;;;;;2.83;2.63;;;24.30;99.90;;;;;;5049740;28;20228;-64
2022/06/29 12:24:46;;;;;;;4.90;2.83;;;;;;;;;;5037043;28;20866;-63
2022/06/29 12:27:13;;;;;;;2.70;2.50;;;24.10;99.90;;;;;;5059430;28;20204;-63
2022/06/29 12:29:41;;;;;;;2.95;2.60;;;;;;;;;;5016492;28;20242;-63
2022/06/29 12:32:08;;;;;;;4.38;2.78;;;24.20;99.90;;;;;;5065506;28;20782;-63
2022/06/29 12:34:35;;;;;;;3.63;2.53;;;24.20;99.90;;;;;;5018459;28;20251;-64
2022/06/29 12:37:03;;;;;;;3.83;2.50;;;24.20;99.90;;;;;;5050256;28;20597;-64
2022/06/29 12:39:32;;;;;;;3.33;2.50;;;23.90;99.90;;;;;;5033493;28;20220;-63
2022/06/29 12:41:59;;;;;;;3.97;2.58;;;24.10;99.90;;;;;;5047476;28;20219;-64
2022/06/29 12:44:26;;;;;;;3.05;2.70;;;24.00;99.90;;;;;;5032369;28;20224;-64
2022/06/29 12:46:53;;;;;;;3.28;2.60;;;24.20;99.90;;;;;;5012190;28;20775;-64
2022/06/29 12:49:21;;;;;;;3.33;2.47;;;24.20;99.90;;;;;;5047741;28;20240;-64
2022/06/29 12:51:47;;;;;;;3.90;2.33;;;24.40;99.90;;;;;;5047878;28;20200;-63
2022/06/29 12:54:15;;;;;;;8.77;2.55;;;24.40;99.90;;;;;;5036533;28;20196;-63
2022/06/29 12:56:43;;;;;;;5.55;2.47;;;24.40;99.90;;;;;;5055789;28;20203;-63
2022/06/29 12:59:11;;;;;;;3.03;2.08;;;24.70;99.90;;;;;;5046714;28;20381;-62
2022/06/29 13:01:38;;;;;;;2.47;2.28;;;24.70;99.90;;;;;;5028274;28;20228;-63
2022/06/29 13:04:06;;;;;;;2.60;2.40;;;;;;;;;;5063149;28;20220;-64
2022/06/29 13:06:32;;;;;;;2.75;2.50;;;24.50;99.90;;;;;;5033491;28;20223;-63
2022/06/29 13:08:59;;;;;;;2.50;2.28;;;24.50;99.90;;;;;;5059420;28;20242;-64
2022/06/29 13:11:26;;;;;;;3.05;2.42;;;24.40;99.90;;;;;;5044958;28;20219;-64
2022/06/29 13:13:54;;;;;;;2.47;2.28;;;24.40;99.90;;;;;;5046801;28;20220;-64
2022/06/29 13:16:21;;;;;;;2.53;2.30;;;24.30;99.90;;;;;;5036263;28;30479;-63
2022/06/29 13:18:48;;;;;;;2.90;2.60;;;24.30;99.90;;;;;;5053571;28;20219;-63
2022/06/29 13:21:15;;;;;;;3.03;2.40;;;24.40;99.90;;;;;;5050492;28;20298;-62
2022/06/29 13:23:42;;;;;;;2.30;2.10;;;;;;;;;;5067092;28;20244;-63
2022/06/29 13:26:09;;;;;;;3.67;2.28;;;24.20;99.90;;;;;;5030103;28;20599;-62